Flight Track Log - Related Links

Times and Time Zones

All times are in EDT time to prevent confusion due to time zone crossing. See the N70AG flight status page for this flight to view local times or setup timezone preferences in your user account.

Time Position Orientation Groundspeed Altitude Reporting Facility
EDT Latitude Longitude Course Direction KTS MPH feet Rate Location/Type
Mon 05:38:31 PM 45.4903 -122.9519 159° South 182 209 3,600  Level Seattle Center
Mon 05:39:32 PM 45.4292 -122.9792 197° South 226 260 7,300 3,541 Climbing Seattle Center
Mon 05:40:00 PM 44.8840 -122.5927 159° South  Level Estimated
Mon 05:40:33 PM 45.3639 -123.0017 194° South 239 275 10,800  Level Seattle Center
Mon 05:41:00 PM 44.7745 -122.5339 159° South  Level Estimated
Mon 05:41:34 PM 45.2833 -123.0278 193° South 291 335 13,100  Level Seattle Center
Mon 05:42:00 PM 44.6649 -122.4753 159° South  Level Estimated
Mon 05:42:35 PM 45.1892 -123.0172 175° South 334 384 15,900  Level Seattle Center
Mon 05:43:00 PM 44.5553 -122.4169 159° South  Level Estimated
Mon 05:43:36 PM 45.0922 -122.9667 160° South 366 421 18,900  Level Seattle Center
Mon 05:44:37 PM 44.9925 -122.9189 161° South 373 429 21,600 2,361 Climbing Seattle Center
Mon 05:45:38 PM 44.8856 -122.8653 160° South 404 465 23,700 2,066 Climbing Seattle Center
Mon 05:46:39 PM 44.7747 -122.8119 161° South 415 478 25,800 1,918 Climbing Seattle Center
Mon 05:47:40 PM 44.6572 -122.7556 161° South 439 505 27,600 2,066 Climbing Seattle Center
Mon 05:48:41 PM 44.5375 -122.6978 161° South 453 521 30,000 2,361 Climbing Seattle Center
Mon 05:49:42 PM 44.4022 -122.6347 162° South 451 519 32,400 3,049 Climbing Seattle Center
Mon 05:50:43 PM 44.2883 -122.5814 161° South 432 497 36,200 2,410 Climbing Seattle Center
Mon 05:51:44 PM 44.1839 -122.5314 161° South 400 460 37,300 787 Climbing Seattle Center
Mon 05:52:45 PM 44.0725 -122.4783 161° South 417 480 37,800 836 Climbing Seattle Center
Mon 05:53:46 PM 43.9608 -122.4261 161° South 420 483 39,000 590 Climbing Seattle Center
Mon 05:54:47 PM 43.8492 -122.3753 162° South 420 483 39,000  Level Seattle Center
Mon 05:55:48 PM 43.7347 -122.3231 162° South 429 494 39,000  Level Seattle Center
Mon 05:56:49 PM 43.6211 -122.2717 162° South 428 493 39,000  Level Seattle Center
Mon 05:57:50 PM 43.5092 -122.2194 161° South 426 490 39,000  Level Seattle Center
Mon 05:58:51 PM 43.3989 -122.1689 162° South 421 484 39,000  Level Seattle Center
Mon 06:00:28 PM 43.2178 -122.0875 162° South 423 487 39,000  Level Oakland Center
Mon 06:00:53 PM 43.1714 -122.0681 163° South 428 493 39,000  Level Seattle Center
Mon 06:01:54 PM 43.0561 -122.0153 162° South 432 497 39,000  Level Seattle Center
Mon 06:02:55 PM 42.9394 -121.9647 162° South 438 504 39,000  Level Seattle Center
Mon 06:03:56 PM 42.8225 -121.9119 162° South 441 507 39,000  Level Seattle Center
Mon 06:04:57 PM 42.6831 -121.8489 162° South 440 506 39,000  Level Seattle Center
Mon 06:05:58 PM 42.5675 -121.7972 162° South 437 503 39,000  Level Seattle Center
Mon 06:06:59 PM 42.4531 -121.7461 162° South 434 499 39,000  Level Seattle Center
Mon 06:08:00 PM 42.3356 -121.6947 162° South 438 504 39,000  Level Seattle Center
Mon 06:09:01 PM 42.2164 -121.6417 162° South 444 511 39,000  Level Seattle Center
Mon 06:10:02 PM 42.0969 -121.5897 162° South 445 512 39,000  Level Seattle Center
Mon 06:11:03 PM 41.9761 -121.5372 162° South 449 517 39,000  Level Seattle Center
Mon 06:12:04 PM 41.8547 -121.4853 162° South 454 522 39,000  Level Seattle Center
Mon 06:13:05 PM 41.7347 -121.4331 162° South 451 519 39,000  Level Seattle Center
Mon 06:14:06 PM 41.6175 -121.3825 162° South 445 512 39,000  Level Seattle Center
Mon 06:15:07 PM 41.4992 -121.3325 162° South 444 511 39,000  Level Seattle Center
Mon 06:16:08 PM 41.3800 -121.2808 162° South 448 516 39,000  Level Seattle Center
Mon 06:17:09 PM 41.2617 -121.2311 162° South 446 513 39,000  Level Seattle Center
Mon 06:18:10 PM 41.1428 -121.1808 162° South 448 516 39,000  Level Seattle Center
Mon 06:19:11 PM 41.0228 -121.1294 162° South 451 519 39,000  Level Seattle Center
Mon 06:20:12 PM 40.9025 -121.0789 162° South 453 521 39,000  Level Seattle Center
Mon 06:21:13 PM 40.7822 -121.0269 162° South 454 522 39,000  Level Seattle Center
Mon 06:22:14 PM 40.6631 -120.9775 163° South 450 518 39,000  Level Seattle Center
Mon 06:22:54 PM 40.5686 -120.9369 162° South 448 516 39,000  Level Oakland Center
Mon 06:23:56 PM 40.4433 -120.8858 163° South 445 512 39,000  Level Oakland Center
Mon 06:24:57 PM 40.3242 -120.8375 163° South 446 513 39,000  Level Oakland Center
Mon 06:25:58 PM 40.2036 -120.7875 162° South 451 519 39,000  Level Oakland Center
Mon 06:26:59 PM 40.0808 -120.7378 163° South 459 528 39,000  Level Oakland Center
Mon 06:28:00 PM 39.9672 -120.6911 163° South 457 526 39,000  Level Oakland Center
Mon 06:29:01 PM 39.8450 -120.6419 163° South 459 528 39,000  Level Oakland Center
Mon 06:30:03 PM 39.7228 -120.5917 162° South 458 527 39,000  Level Oakland Center
Mon 06:31:04 PM 39.5761 -120.5342 163° South 458 527 39,000  Level Oakland Center
Mon 06:32:05 PM 39.4536 -120.4842 163° South 458 527 39,000  Level Oakland Center
Mon 06:33:06 PM 39.3297 -120.4353 163° South 462 532 39,000  Level Oakland Center
Mon 06:34:07 PM 39.2053 -120.3844 162° South 466 536 39,000  Level Oakland Center
Mon 06:35:08 PM 39.0814 -120.3353 163° South 463 533 39,000  Level Oakland Center
Mon 06:36:10 PM 38.9583 -120.2878 163° South 461 531 39,000  Level Oakland Center
Mon 06:37:11 PM 38.8347 -120.2383 163° South 462 532 39,000  Level Oakland Center
Mon 06:38:12 PM 38.7092 -120.1892 163° South 465 535 39,000  Level Oakland Center
Mon 06:39:13 PM 38.5850 -120.1419 163° South 463 533 39,000  Level Oakland Center
Mon 06:40:15 PM 38.4631 -120.0922 162° South 461 531 39,000  Level Oakland Center
Mon 06:41:16 PM 38.3386 -120.0456 164° South 461 531 39,000  Level Oakland Center
Mon 06:42:17 PM 38.2144 -119.9975 163° South 462 532 39,000  Level Oakland Center
Mon 06:43:18 PM 38.0925 -119.9475 162° South 461 531 39,000  Level Oakland Center
Mon 06:44:19 PM 37.9697 -119.9006 163° South 460 529 39,000  Level Oakland Center
Mon 06:45:21 PM 37.8192 -119.8433 163° South 466 536 39,000  Level Oakland Center
Mon 06:46:22 PM 37.6928 -119.7961 164° South 470 541 39,000  Level Oakland Center
Mon 06:47:23 PM 37.5658 -119.7506 164° South 475 547 39,000  Level Oakland Center
Mon 06:48:24 PM 37.4408 -119.7033 163° South 467 537 39,000  Level Oakland Center
Mon 06:49:26 PM 37.3231 -119.6572 163° South 464 534 39,000  Level Oakland Center
Mon 06:50:27 PM 37.1983 -119.6097 163° South 467 537 39,000  Level Oakland Center
Mon 06:51:28 PM 37.0742 -119.5619 163° South 465 535 39,000  Level Oakland Center
Mon 06:52:30 PM 36.9486 -119.5136 163° South 471 542 39,000  Level Oakland Center
Mon 06:53:31 PM 36.8225 -119.4653 163° South 474 545 39,000  Level Oakland Center
Mon 06:54:32 PM 36.6714 -119.4100 164° South 471 542 39,000  Level Oakland Center
Mon 06:55:33 PM 36.5450 -119.3625 163° South 473 544 39,000  Level Oakland Center
Mon 06:56:35 PM 36.4183 -119.3150 163° South 474 545 39,000  Level Oakland Center
Mon 06:57:36 PM 36.2917 -119.2692 164° South 474 545 39,000  Level Oakland Center
Mon 06:58:37 PM 36.1656 -119.2231 164° South 472 543 39,000  Level Oakland Center
Mon 06:59:38 PM 36.0378 -119.1772 164° South 477 549 39,000  Level Oakland Center
Mon 07:00:40 PM 35.9128 -119.1344 165° South 465 535 39,000  Level Oakland Center
Mon 07:01:42 PM 35.7853 -119.0883 164° South 472 543 39,000  Level Oakland Center
Mon 07:02:43 PM 35.6564 -119.0406 163° South 479 551 39,000  Level Oakland Center
Mon 07:03:34 PM 35.5272 -118.9942 164° South 478 550 39,000  Level Los Angeles Center
Mon 07:04:36 PM 35.3983 -118.9472 163° South 480 552 39,000  Level Los Angeles Center
Mon 07:05:38 PM 35.2700 -118.9017 164° South 480 552 39,000  Level Los Angeles Center
Mon 07:06:40 PM 35.1408 -118.8558 164° South 480 552 39,000  Level Los Angeles Center
Mon 07:07:42 PM 35.0089 -118.8089 164° South 489 563 39,000  Level Los Angeles Center
Mon 07:08:44 PM 34.8886 -118.7539 159° South 484 557 39,000  Level Los Angeles Center
Mon 07:09:46 PM 34.7456 -118.6569 151° Southeast 489 563 39,000  Level Los Angeles Center
Mon 07:10:48 PM 34.6267 -118.5772 151° Southeast 488 562 39,000  Level Los Angeles Center
Mon 07:11:49 PM 34.5067 -118.4975 151° Southeast 490 564 39,000  Level Los Angeles Center
Mon 07:12:51 PM 34.3850 -118.4203 152° Southeast 493 567 39,000 -48 Level Los Angeles Center
Mon 07:13:53 PM 34.2644 -118.3417 152° Southeast 491 565 38,900 -1,016 Descending Los Angeles Center
Mon 07:14:55 PM 34.1472 -118.2631 151° Southeast 482 555 36,900 -1,935 Descending Los Angeles Center
Mon 07:15:57 PM 34.0356 -118.1894 151° Southeast 461 531 34,900 -2,129 Descending Los Angeles Center
Mon 07:16:59 PM 33.9000 -118.1008 152° Southeast 465 535 32,500 -2,195 Descending Los Angeles Center
Mon 07:18:00 PM 33.7825 -118.0269 152° Southeast 471 542 30,400 -2,049 Descending Los Angeles Center
Mon 07:19:02 PM 33.6683 -117.9528 152° Southeast 464 534 28,300 -2,177 Descending Los Angeles Center
Mon 07:20:04 PM 33.5639 -117.8842 151° Southeast 437 503 25,900 -2,274 Descending Los Angeles Center
Mon 07:21:06 PM 33.4608 -117.8203 153° Southeast 421 484 23,600 -2,177 Descending Los Angeles Center
Mon 07:22:08 PM 33.3819 -117.7339 138° Southeast 390 449 21,400 -2,098 Descending Los Angeles Center
Mon 07:23:09 PM 33.3097 -117.6419 133° Southeast 382 440 19,300 -2,049 Descending Los Angeles Center
Mon 07:24:11 PM 33.2400 -117.5561 134° Southeast 370 426 17,200 -2,177 Descending Los Angeles Center
Mon 07:25:13 PM 33.1461 -117.4753 144° Southeast 354 407 14,800 -2,160 Descending Los Angeles Center
Mon 07:26:16 PM 33.0667 -117.4167 148° Southeast 328 377 12,700 -2,000 Descending Southern California TRACON
Mon 07:27:16 PM 32.9833 -117.3500 146° Southeast 319 367 10,700 -1,983 Descending Southern California TRACON
Mon 07:28:17 PM 32.9167 -117.3000 148° Southeast 311 358 8,700 -1,785 Descending Southern California TRACON
Mon 07:29:17 PM 32.8500 -117.2333 140° Southeast 303 349 7,100 -1,250 Descending Southern California TRACON
Mon 07:30:17 PM 32.8000 -117.1667 132° Southeast 268 308 6,200 -850 Descending Southern California TRACON
Mon 07:31:17 PM 32.7833 -117.0833 103° East 247 284 5,400 -810 Descending Southern California TRACON
Mon 07:32:23 PM 32.7500 -117.0167 121° Southeast 214 246 4,500 -1,048 Descending Southern California TRACON
Mon 07:33:23 PM 32.7000 -117.0333 196° South 194 223 3,200 -1,158 Descending Southern California TRACON
Mon 07:34:17 PM 32.7000 -117.0833 270° West 158 182 2,300 -1,039 Descending Southern California TRACON
Mon 07:35:30 PM 32.7206 -117.1381 294° West 155 178 1,000 -978 Descending Los Angeles Center
Mon 07:36:32 PM 32.7294 -117.1803 284° West 143 165 100 -871 Descending Los Angeles Center
Mon 07:38:00 PM 32.7333 -117.1833 285° West  Level FlightAware Approximate
Mon 07:45:00 PM 32.7336 -117.1897 285° West  Level Estimated

Login

Don't have an account? Register now (free) for customized features, flight alerts, and more!